createdAt,value
2018-02-07T00:00:02.165Z,0.96
2018-02-07T00:01:02.130Z,0.95
2018-02-07T00:02:02.103Z,0.99
2018-02-07T00:03:02.084Z,1.03
2018-02-07T00:04:02.050Z,1.00
2018-02-07T00:05:02.025Z,1.00
2018-02-07T00:06:02.002Z,1.04
2018-02-07T00:07:01.971Z,0.96
2018-02-07T00:08:01.946Z,0.99
2018-02-07T00:09:01.932Z,0.91
2018-02-07T00:10:01.951Z,0.85
2018-02-07T00:11:01.879Z,0.89
2018-02-07T00:12:01.842Z,0.86
2018-02-07T00:13:01.813Z,0.82
2018-02-07T00:14:01.803Z,0.88
2018-02-07T00:15:01.762Z,0.86
2018-02-07T00:16:01.741Z,0.85
2018-02-07T00:17:01.712Z,0.82
2018-02-07T00:18:01.690Z,0.88
2018-02-07T00:19:01.664Z,0.85
2018-02-07T00:20:01.632Z,0.91
2018-02-07T00:21:01.778Z,0.78
2018-02-07T00:22:01.582Z,0.76
2018-02-07T00:23:01.554Z,0.78
2018-02-07T00:24:01.567Z,0.76
2018-02-07T00:25:01.504Z,0.78
2018-02-07T00:26:01.478Z,0.78
2018-02-07T00:27:01.449Z,0.70
2018-02-07T00:28:01.426Z,0.76
2018-02-07T00:29:01.400Z,0.77
2018-02-07T00:30:01.371Z,0.76
2018-02-07T00:31:01.350Z,0.76
2018-02-07T00:32:01.318Z,0.74
2018-02-07T00:33:01.291Z,0.73
2018-02-07T00:34:01.268Z,0.68
2018-02-07T00:35:01.241Z,0.78
2018-02-07T00:36:01.220Z,0.82
2018-02-07T00:37:01.188Z,0.74
2018-02-07T00:38:01.162Z,0.81
2018-02-07T00:39:01.142Z,0.68
2018-02-07T00:40:01.111Z,0.68
2018-02-07T00:41:01.083Z,0.59
2018-02-07T00:42:01.068Z,0.66
2018-02-07T00:43:01.177Z,0.73
2018-02-07T00:44:01.006Z,0.68
2018-02-07T00:45:00.987Z,0.63
2018-02-07T00:46:00.968Z,0.64
2018-02-07T00:47:00.933Z,0.63
2018-02-07T00:48:00.899Z,0.61
2018-02-07T00:49:00.876Z,0.59
2018-02-07T00:50:00.845Z,0.66
2018-02-07T00:51:00.820Z,0.63
2018-02-07T00:52:00.797Z,0.55
2018-02-07T00:53:00.775Z,0.58
2018-02-07T00:54:00.875Z,0.61
2018-02-07T00:55:00.715Z,0.63
2018-02-07T00:56:00.694Z,0.61
2018-02-07T00:57:00.676Z,0.58
2018-02-07T00:58:00.634Z,0.63
2018-02-07T00:59:00.619Z,0.66
2018-02-07T01:00:00.637Z,0.56
2018-02-07T01:01:00.557Z,0.63
2018-02-07T01:02:00.544Z,0.68
2018-02-07T01:03:00.506Z,0.58
2018-02-07T01:04:00.484Z,0.66
2018-02-07T01:05:00.455Z,0.67
2018-02-07T01:06:00.431Z,0.70
2018-02-07T01:07:00.404Z,0.63
2018-02-07T01:08:00.374Z,0.56
2018-02-07T01:09:00.346Z,0.63
2018-02-07T01:10:00.322Z,0.59
2018-02-07T01:11:00.294Z,0.59
2018-02-07T01:12:00.276Z,0.58
2018-02-07T01:13:00.244Z,0.49
2018-02-07T01:14:00.226Z,0.59
2018-02-07T01:15:00.193Z,0.71
2018-02-07T01:16:00.308Z,0.61
2018-02-07T01:17:00.135Z,0.56
2018-02-07T01:18:00.112Z,0.66
2018-02-07T01:19:00.170Z,0.66
2018-02-07T01:20:00.059Z,0.61
2018-02-07T01:21:00.032Z,0.58
2018-02-07T01:22:00.027Z,0.59
2018-02-07T01:22:59.990Z,0.63
2018-02-07T01:23:59.951Z,0.59
2018-02-07T01:24:59.924Z,0.55
2018-02-07T01:25:59.899Z,0.59
2018-02-07T01:26:59.876Z,0.59
2018-02-07T01:27:59.846Z,0.63
2018-02-07T01:28:59.829Z,0.51
2018-02-07T01:29:59.802Z,0.64
2018-02-07T01:30:59.765Z,0.55
2018-02-07T01:31:59.740Z,0.59
2018-02-07T01:32:59.711Z,0.49
2018-02-07T01:33:59.694Z,0.45
2018-02-07T01:34:59.659Z,0.44
2018-02-07T01:35:59.635Z,0.49
2018-02-07T01:36:59.610Z,0.44
2018-02-07T01:37:59.582Z,0.47
2018-02-07T01:38:59.554Z,0.51
2018-02-07T01:39:59.540Z,0.40
2018-02-07T01:40:59.532Z,0.52
2018-02-07T01:41:59.479Z,0.56
2018-02-07T01:42:59.462Z,0.39
2018-02-07T01:43:59.533Z,0.47
2018-02-07T01:44:59.401Z,0.36
2018-02-07T01:45:59.372Z,0.40
2018-02-07T01:46:59.349Z,0.36
2018-02-07T01:47:59.329Z,0.36
2018-02-07T01:48:59.298Z,0.40
2018-02-07T01:49:59.267Z,0.37
2018-02-07T01:50:59.243Z,0.34
2018-02-07T01:51:59.248Z,0.39
2018-02-07T01:52:59.204Z,0.36
2018-02-07T01:53:59.161Z,0.47
2018-02-07T01:54:59.146Z,0.40
2018-02-07T01:55:59.107Z,0.40
2018-02-07T01:56:59.079Z,0.36
2018-02-07T01:57:59.107Z,0.40
2018-02-07T01:58:59.032Z,0.34
2018-02-07T01:59:59.002Z,0.39
2018-02-07T02:00:58.978Z,0.31
2018-02-07T02:01:58.950Z,0.33
2018-02-07T02:02:58.921Z,0.42
2018-02-07T02:03:58.897Z,0.24
2018-02-07T02:04:58.868Z,0.36
2018-02-07T02:05:58.841Z,0.39
2018-02-07T02:06:58.818Z,0.40
2018-02-07T02:07:58.788Z,0.40
2018-02-07T02:08:58.760Z,0.39
2018-02-07T02:09:58.735Z,0.33
2018-02-07T02:10:58.708Z,0.40
2018-02-07T02:11:58.684Z,0.31
2018-02-07T02:12:58.655Z,0.26
2018-02-07T02:13:58.630Z,0.31
2018-02-07T02:14:58.605Z,0.26
2018-02-07T02:15:58.581Z,0.26
2018-02-07T02:16:58.548Z,0.27
2018-02-07T02:17:58.522Z,0.26
2018-02-07T02:18:58.495Z,0.15
2018-02-07T02:19:58.486Z,0.30
2018-02-07T02:20:58.449Z,0.26
2018-02-07T02:21:58.415Z,0.33
2018-02-07T02:22:58.401Z,0.24
2018-02-07T02:23:58.363Z,0.23
2018-02-07T02:24:58.335Z,0.27
2018-02-07T02:25:58.315Z,0.30
2018-02-07T02:26:58.284Z,0.36
2018-02-07T02:27:58.258Z,0.31
2018-02-07T02:28:58.243Z,0.39
2018-02-07T02:29:58.204Z,0.24
2018-02-07T02:30:58.185Z,0.20
2018-02-07T02:31:58.153Z,0.23
2018-02-07T02:32:58.125Z,0.16
2018-02-07T02:33:58.107Z,0.08
2018-02-07T02:34:58.072Z,0.08
2018-02-07T02:35:58.047Z,0.08
2018-02-07T02:36:58.041Z,0.05
2018-02-07T02:37:58.018Z,0.09
2018-02-07T02:38:57.967Z,0.08
2018-02-07T02:39:57.942Z,0.19
2018-02-07T02:40:57.914Z,0.15
2018-02-07T02:41:57.885Z,0.12
2018-02-07T02:42:57.861Z,0.20
2018-02-07T02:43:57.837Z,0.27
2018-02-07T02:44:57.806Z,0.27
2018-02-07T02:45:57.781Z,0.39
2018-02-07T02:46:57.752Z,0.20
2018-02-07T02:47:57.724Z,0.29
2018-02-07T02:48:57.722Z,0.39
2018-02-07T02:49:57.672Z,0.37
2018-02-07T02:50:57.650Z,0.34
2018-02-07T02:51:57.622Z,0.33
2018-02-07T02:52:57.593Z,0.33
2018-02-07T02:53:57.568Z,0.23
2018-02-07T02:54:57.540Z,0.26
2018-02-07T02:55:57.512Z,0.27
2018-02-07T02:56:57.488Z,0.27
2018-02-07T02:57:57.459Z,0.31
2018-02-07T02:58:57.447Z,0.33
2018-02-07T02:59:57.409Z,0.33
2018-02-07T03:00:57.380Z,0.39
2018-02-07T03:01:57.373Z,0.37
2018-02-07T03:02:57.328Z,0.36
2018-02-07T03:03:57.300Z,0.37
2018-02-07T03:04:57.279Z,0.42
2018-02-07T03:05:57.247Z,0.37
2018-02-07T03:06:57.220Z,0.42
2018-02-07T03:07:57.198Z,0.36
2018-02-07T03:08:57.175Z,0.33
2018-02-07T03:09:57.139Z,0.29
2018-02-07T03:10:57.118Z,0.29
2018-02-07T03:11:57.090Z,0.24
2018-02-07T03:12:57.066Z,0.23
2018-02-07T03:13:57.044Z,0.18
2018-02-07T03:14:57.008Z,0.12
2018-02-07T03:15:57.004Z,0.19
2018-02-07T03:16:56.957Z,0.19
2018-02-07T03:17:56.928Z,0.09
2018-02-07T03:18:56.906Z,0.15
2018-02-07T03:19:56.876Z,0.15
2018-02-07T03:20:56.850Z,0.08
2018-02-07T03:21:56.825Z,0.16
2018-02-07T03:22:56.794Z,0.24
2018-02-07T03:23:56.771Z,0.29
2018-02-07T03:24:56.746Z,0.27
2018-02-07T03:25:56.716Z,0.29
2018-02-07T03:26:56.689Z,0.16
2018-02-07T03:27:56.663Z,0.13
2018-02-07T03:28:56.645Z,0.09
2018-02-07T03:29:56.609Z,0.11
2018-02-07T03:30:56.583Z,0.18
2018-02-07T03:31:56.557Z,0.08
2018-02-07T03:32:56.535Z,0.16
2018-02-07T03:33:56.505Z,0.05
2018-02-07T03:34:56.477Z,0.00
2018-02-07T03:35:56.453Z,0.06
2018-02-07T03:36:56.423Z,0.05
2018-02-07T03:37:56.423Z,0.05
2018-02-07T03:38:56.409Z,0.11
2018-02-07T03:39:56.345Z,0.08
2018-02-07T03:40:56.326Z,0.09
2018-02-07T03:41:56.292Z,0.02
2018-02-07T03:42:56.266Z,0.05
2018-02-07T03:43:56.243Z,0.15
2018-02-07T03:44:56.212Z,0.08
2018-02-07T03:45:56.184Z,0.01
2018-02-07T03:46:56.165Z,0.02
2018-02-07T03:47:56.134Z,0.02
2018-02-07T03:48:56.105Z,0.05
2018-02-07T03:49:56.082Z,0.06
2018-02-07T03:50:56.050Z,0.00
2018-02-07T03:51:56.043Z,0.11
2018-02-07T03:52:56.000Z,-0.02
2018-02-07T03:53:55.974Z,0.12
2018-02-07T03:54:55.946Z,0.12
2018-02-07T03:55:55.920Z,0.12
2018-02-07T03:56:55.894Z,0.08
2018-02-07T03:57:55.866Z,0.09
2018-02-07T03:58:55.841Z,0.12
2018-02-07T03:59:55.812Z,0.02
2018-02-07T04:00:55.785Z,0.02
2018-02-07T04:01:55.764Z,-0.02
2018-02-07T04:02:55.747Z,0.02
2018-02-07T04:03:55.707Z,-0.05
2018-02-07T04:04:55.680Z,0.00
2018-02-07T04:05:55.716Z,0.05
2018-02-07T04:06:55.637Z,-0.13
2018-02-07T04:07:55.608Z,-0.09
2018-02-07T04:08:55.574Z,-0.17
2018-02-07T04:09:55.549Z,-0.06
2018-02-07T04:10:55.529Z,-0.18
2018-02-07T04:11:55.495Z,-0.13
2018-02-07T04:12:55.469Z,-0.10
2018-02-07T04:13:55.444Z,-0.12
2018-02-07T04:14:55.414Z,-0.23
2018-02-07T04:15:55.388Z,-0.06
2018-02-07T04:16:55.470Z,-0.05
2018-02-07T04:17:55.334Z,-0.15
2018-02-07T04:18:55.308Z,-0.10
2018-02-07T04:19:55.292Z,-0.17
2018-02-07T04:20:55.253Z,-0.09
2018-02-07T04:21:55.228Z,-0.20
2018-02-07T04:22:55.199Z,-0.06
2018-02-07T04:23:55.173Z,-0.18
2018-02-07T04:24:55.147Z,-0.15
2018-02-07T04:25:55.121Z,-0.18
2018-02-07T04:26:55.091Z,-0.17
2018-02-07T04:27:55.067Z,-0.20
2018-02-07T04:28:55.039Z,-0.27
2018-02-07T04:29:55.013Z,-0.26
2018-02-07T04:30:54.987Z,-0.23
2018-02-07T04:31:54.959Z,-0.18
2018-02-07T04:32:54.932Z,-0.17
2018-02-07T04:33:54.906Z,-0.13
2018-02-07T04:34:54.886Z,-0.20
2018-02-07T04:35:54.855Z,-0.28
2018-02-07T04:36:54.824Z,-0.27
2018-02-07T04:37:54.798Z,-0.39
2018-02-07T04:38:54.769Z,-0.39
2018-02-07T04:39:54.745Z,-0.35
2018-02-07T04:40:54.717Z,-0.44
2018-02-07T04:41:54.705Z,-0.46
2018-02-07T04:42:54.663Z,-0.41
2018-02-07T04:43:54.653Z,-0.44
2018-02-07T04:44:54.618Z,-0.36
2018-02-07T04:45:54.591Z,-0.44
2018-02-07T04:46:54.564Z,-0.39
2018-02-07T04:47:54.563Z,-0.41
2018-02-07T04:48:54.504Z,-0.39
2018-02-07T04:49:54.475Z,-0.39
2018-02-07T04:50:54.449Z,-0.46
2018-02-07T04:51:54.423Z,-0.46
2018-02-07T04:52:54.392Z,-0.51
2018-02-07T04:53:54.370Z,-0.41
2018-02-07T04:54:54.344Z,-0.46
2018-02-07T04:55:54.326Z,-0.42
2018-02-07T04:56:54.296Z,-0.54
2018-02-07T04:57:54.262Z,-0.60
2018-02-07T04:58:54.236Z,-0.60
2018-02-07T04:59:54.213Z,-0.60
2018-02-07T05:00:54.188Z,-0.54
2018-02-07T05:01:54.151Z,-0.54
2018-02-07T05:02:54.125Z,-0.59
2018-02-07T05:03:54.098Z,-0.64
2018-02-07T05:04:54.071Z,-0.57
2018-02-07T05:05:54.045Z,-0.62
2018-02-07T05:06:54.016Z,-0.60
2018-02-07T05:07:53.992Z,-0.57
2018-02-07T05:08:53.960Z,-0.54
2018-02-07T05:09:53.935Z,-0.56
2018-02-07T05:10:53.913Z,-0.56
2018-02-07T05:11:53.879Z,-0.57
2018-02-07T05:12:53.853Z,-0.57
2018-02-07T05:13:53.831Z,-0.57
2018-02-07T05:14:53.823Z,-0.53
2018-02-07T05:15:53.773Z,-0.54
2018-02-07T05:16:53.744Z,-0.56
2018-02-07T05:17:53.720Z,-0.57
2018-02-07T05:18:53.690Z,-0.67
2018-02-07T05:19:53.664Z,-0.63
2018-02-07T05:20:53.640Z,-0.57
2018-02-07T05:21:53.610Z,-0.66
2018-02-07T05:22:53.589Z,-0.60
2018-02-07T05:23:53.555Z,-0.74
2018-02-07T05:24:53.528Z,-0.75
2018-02-07T05:25:53.519Z,-0.78
2018-02-07T05:26:53.524Z,-0.64
2018-02-07T05:27:53.448Z,-0.74
2018-02-07T05:28:53.427Z,-0.75
2018-02-07T05:29:53.450Z,-0.78
2018-02-07T05:30:53.370Z,-0.82
2018-02-07T05:31:53.342Z,-0.91
2018-02-07T05:32:53.363Z,-0.87
2018-02-07T05:33:53.297Z,-0.93
2018-02-07T05:34:53.266Z,-0.91
2018-02-07T05:35:53.230Z,-0.77
2018-02-07T05:36:53.199Z,-0.87
2018-02-07T05:37:53.172Z,-0.77
2018-02-07T05:38:53.148Z,-0.82
2018-02-07T05:39:53.120Z,-0.87
2018-02-07T05:40:53.089Z,-0.87
2018-02-07T05:41:53.068Z,-0.93
2018-02-07T05:42:53.037Z,-0.84
2018-02-07T05:43:53.026Z,-0.89
2018-02-07T05:44:52.981Z,-0.87
2018-02-07T05:45:52.956Z,-0.97
2018-02-07T05:46:52.932Z,-0.97
2018-02-07T05:47:52.899Z,-1.04
2018-02-07T05:48:52.872Z,-1.00
2018-02-07T05:49:52.846Z,-1.03
2018-02-07T05:50:52.818Z,-1.01
2018-02-07T05:51:52.816Z,-1.12
2018-02-07T05:52:52.763Z,-1.12
2018-02-07T05:53:52.737Z,-1.07
2018-02-07T05:54:52.707Z,-1.11
2018-02-07T05:55:52.686Z,-1.11
2018-02-07T05:56:52.662Z,-1.18
2018-02-07T05:57:52.627Z,-1.17
2018-02-07T05:58:52.597Z,-1.14
2018-02-07T05:59:52.575Z,-1.22
2018-02-07T06:00:52.544Z,-1.19
2018-02-07T06:01:52.517Z,-1.25
2018-02-07T06:02:52.493Z,-1.18
2018-02-07T06:03:52.462Z,-1.18
2018-02-07T06:04:52.435Z,-1.27
2018-02-07T06:05:52.551Z,-1.25
2018-02-07T06:06:52.382Z,-1.27
2018-02-07T06:07:52.362Z,-1.22
2018-02-07T06:08:52.353Z,-1.17
2018-02-07T06:09:52.295Z,-1.27
2018-02-07T06:10:52.267Z,-1.30
2018-02-07T06:11:52.305Z,-1.27
2018-02-07T06:12:52.212Z,-1.36
2018-02-07T06:13:52.189Z,-1.38
2018-02-07T06:14:52.163Z,-1.32
2018-02-07T06:15:52.135Z,-1.40
2018-02-07T06:16:52.112Z,-1.32
2018-02-07T06:17:52.074Z,-1.36
2018-02-07T06:18:52.047Z,-1.40
2018-02-07T06:19:52.021Z,-1.38
2018-02-07T06:20:52.002Z,-1.50
2018-02-07T06:21:51.964Z,-1.36
2018-02-07T06:22:51.939Z,-1.43
2018-02-07T06:23:51.915Z,-1.46
2018-02-07T06:24:51.881Z,-1.51
2018-02-07T06:25:51.853Z,-1.53
2018-02-07T06:26:51.827Z,-1.43
2018-02-07T06:27:51.807Z,-1.38
2018-02-07T06:28:51.774Z,-1.40
2018-02-07T06:29:51.746Z,-1.43
2018-02-07T06:30:51.715Z,-1.50
2018-02-07T06:31:51.691Z,-1.43
2018-02-07T06:32:51.661Z,-1.48
2018-02-07T06:33:51.633Z,-1.48
2018-02-07T06:34:51.602Z,-1.43
2018-02-07T06:35:51.581Z,-1.38
2018-02-07T06:36:51.549Z,-1.42
2018-02-07T06:37:51.520Z,-1.42
2018-02-07T06:38:51.542Z,-1.40
2018-02-07T06:39:51.465Z,-1.43
2018-02-07T06:40:51.441Z,-1.42
2018-02-07T06:41:51.460Z,-1.46
2018-02-07T06:42:51.382Z,-1.50
2018-02-07T06:43:51.353Z,-1.48
2018-02-07T06:44:51.329Z,-1.58
2018-02-07T06:45:51.303Z,-1.58
2018-02-07T06:46:51.280Z,-1.56
2018-02-07T06:47:51.240Z,-1.56
2018-02-07T06:48:51.212Z,-1.50
2018-02-07T06:49:51.185Z,-1.54
2018-02-07T06:50:51.160Z,-1.56
2018-02-07T06:51:51.131Z,-1.57
2018-02-07T06:52:51.100Z,-1.58
2018-02-07T06:53:51.074Z,-1.50
2018-02-07T06:54:51.068Z,-1.53
2018-02-07T06:55:51.024Z,-1.46
2018-02-07T06:56:50.990Z,-1.45
2018-02-07T06:57:50.976Z,-1.45
2018-02-07T06:58:50.944Z,-1.45
2018-02-07T06:59:50.919Z,-1.60
2018-02-07T07:00:50.885Z,-1.50
2018-02-07T07:01:50.849Z,-1.40
2018-02-07T07:02:50.832Z,-1.54
2018-02-07T07:03:50.796Z,-1.48
2018-02-07T07:04:50.780Z,-1.46
2018-02-07T07:05:50.738Z,-1.51
2018-02-07T07:06:50.718Z,-1.54
2018-02-07T07:07:50.680Z,-1.48
2018-02-07T07:08:50.656Z,-1.46
2018-02-07T07:09:50.626Z,-1.45
2018-02-07T07:10:50.597Z,-1.53
2018-02-07T07:11:50.570Z,-1.46
2018-02-07T07:12:50.545Z,-1.54
2018-02-07T07:13:50.528Z,-1.51
2018-02-07T07:14:50.494Z,-1.43
2018-02-07T07:15:50.457Z,-1.60
2018-02-07T07:16:50.439Z,-1.54
2018-02-07T07:17:50.404Z,-1.42
2018-02-07T07:18:50.376Z,-1.51
2018-02-07T07:19:50.345Z,-1.60
2018-02-07T07:20:50.316Z,-1.46
2018-02-07T07:21:50.293Z,-1.54
2018-02-07T07:22:50.327Z,-1.45
2018-02-07T07:23:50.234Z,-1.54
2018-02-07T07:24:50.203Z,-1.53
2018-02-07T07:25:50.239Z,-1.57
2018-02-07T07:26:50.153Z,-1.61
2018-02-07T07:27:50.124Z,-1.51
2018-02-07T07:28:50.198Z,-1.57
2018-02-07T07:29:50.067Z,-1.50
2018-02-07T07:30:50.038Z,-1.54
2018-02-07T07:31:50.014Z,-1.54
2018-02-07T07:32:49.991Z,-1.53
2018-02-07T07:33:49.952Z,-1.53
2018-02-07T07:34:49.923Z,-1.45
2018-02-07T07:35:49.910Z,-1.53
2018-02-07T07:36:49.873Z,-1.51
2018-02-07T07:37:49.843Z,-1.54
2018-02-07T07:38:49.814Z,-1.56
2018-02-07T07:39:49.786Z,-1.58
2018-02-07T07:40:49.761Z,-1.42
2018-02-07T07:41:49.736Z,-1.57
2018-02-07T07:42:49.703Z,-1.40
2018-02-07T07:43:49.673Z,-1.58
2018-02-07T07:44:49.646Z,-1.46
2018-02-07T07:45:49.620Z,-1.43
2018-02-07T07:46:49.593Z,-1.30
2018-02-07T07:47:49.563Z,-1.21
2018-02-07T07:48:49.537Z,-1.30
2018-02-07T07:49:49.508Z,-1.18
2018-02-07T07:50:49.480Z,-1.18
2018-02-07T07:51:49.454Z,-1.21
2018-02-07T07:52:49.422Z,-1.18
2018-02-07T07:53:49.395Z,-1.06
2018-02-07T07:54:49.370Z,-1.01
2018-02-07T07:55:49.339Z,-1.03
2018-02-07T07:56:49.312Z,-1.01
2018-02-07T07:57:49.355Z,-0.96
2018-02-07T07:58:49.260Z,-0.94
2018-02-07T07:59:49.229Z,-0.99
2018-02-07T08:00:49.211Z,-1.01
2018-02-07T08:01:49.174Z,-1.06
2018-02-07T08:02:49.155Z,-1.18
2018-02-07T08:03:49.118Z,-1.11
2018-02-07T08:04:49.088Z,-1.06
2018-02-07T08:05:49.060Z,-0.99
2018-02-07T08:06:49.035Z,-1.03
2018-02-07T08:07:49.006Z,-1.07
2018-02-07T08:08:48.976Z,-1.00
2018-02-07T08:09:48.950Z,-1.01
2018-02-07T08:10:48.921Z,-1.04
2018-02-07T08:11:48.895Z,-1.14
2018-02-07T08:12:48.866Z,-1.11
2018-02-07T08:13:48.836Z,-1.11
2018-02-07T08:14:48.817Z,-1.21
2018-02-07T08:15:48.783Z,-1.18
2018-02-07T08:16:48.756Z,-1.07
2018-02-07T08:17:48.725Z,-1.09
2018-02-07T08:18:48.700Z,-1.04
2018-02-07T08:19:48.678Z,-1.03
2018-02-07T08:20:48.645Z,-0.94
2018-02-07T08:21:48.633Z,-0.89
2018-02-07T08:22:48.588Z,-0.87
2018-02-07T08:23:48.561Z,-0.89
2018-02-07T08:24:48.538Z,-0.82
2018-02-07T08:25:48.505Z,-0.96
2018-02-07T08:26:48.481Z,-0.99
2018-02-07T08:27:48.454Z,-0.96
2018-02-07T08:28:48.428Z,-0.89
2018-02-07T08:29:48.400Z,-0.96
2018-02-07T08:30:48.449Z,-0.89
2018-02-07T08:31:48.339Z,-1.01
2018-02-07T08:32:48.310Z,-0.93
2018-02-07T08:33:48.355Z,-0.84
2018-02-07T08:34:48.257Z,-0.93
2018-02-07T08:35:48.238Z,-0.96
2018-02-07T08:36:48.311Z,-0.77
2018-02-07T08:37:48.174Z,-0.89
2018-02-07T08:38:48.148Z,-0.84
2018-02-07T08:39:48.124Z,-0.75
2018-02-07T08:40:48.090Z,-0.77
2018-02-07T08:41:48.062Z,-0.81
2018-02-07T08:42:48.088Z,-0.80
2018-02-07T08:43:48.008Z,-0.85
2018-02-07T08:44:47.978Z,-0.97
2018-02-07T08:45:47.974Z,-0.93
2018-02-07T08:46:47.925Z,-0.94
2018-02-07T08:47:47.902Z,-0.91
2018-02-07T08:48:47.886Z,-0.85
2018-02-07T08:49:47.844Z,-0.78
2018-02-07T08:50:47.815Z,-0.72
2018-02-07T08:51:47.793Z,-0.69
2018-02-07T08:52:47.761Z,-0.72
2018-02-07T08:53:47.758Z,-0.77
2018-02-07T08:54:47.707Z,-0.77
2018-02-07T08:55:47.676Z,-0.69
2018-02-07T08:56:47.650Z,-0.62
2018-02-07T08:57:47.628Z,-0.69
2018-02-07T08:58:47.592Z,-0.60
2018-02-07T08:59:47.566Z,-0.59
2018-02-07T09:00:47.540Z,-0.63
2018-02-07T09:01:47.510Z,-0.60
2018-02-07T09:02:47.484Z,-0.57
2018-02-07T09:03:47.460Z,-0.64
2018-02-07T09:04:47.434Z,-0.57
2018-02-07T09:05:47.411Z,-0.56
2018-02-07T09:06:47.383Z,-0.57
2018-02-07T09:07:47.354Z,-0.45
2018-02-07T09:08:47.322Z,-0.45
2018-02-07T09:09:47.295Z,-0.44
2018-02-07T09:10:47.266Z,-0.36
2018-02-07T09:11:47.244Z,-0.36
2018-02-07T09:12:47.295Z,-0.35
2018-02-07T09:13:47.186Z,-0.33
2018-02-07T09:14:47.167Z,-0.31
2018-02-07T09:15:47.221Z,-0.39
2018-02-07T09:16:47.101Z,-0.45
2018-02-07T09:17:47.074Z,-0.54
2018-02-07T09:18:47.049Z,-0.49
2018-02-07T09:19:47.022Z,-0.49
2018-02-07T09:20:47.013Z,-0.49
2018-02-07T09:21:46.966Z,-0.53
2018-02-07T09:22:46.937Z,-0.56
2018-02-07T09:23:46.910Z,-0.46
2018-02-07T09:24:46.883Z,-0.39
2018-02-07T09:25:46.863Z,-0.31
2018-02-07T09:26:46.838Z,-0.33
2018-02-07T09:27:46.799Z,-0.31
2018-02-07T09:28:46.780Z,-0.20
2018-02-07T09:29:46.759Z,-0.30
2018-02-07T09:30:46.719Z,-0.12
2018-02-07T09:31:46.694Z,-0.17
2018-02-07T09:32:46.663Z,-0.12
2018-02-07T09:33:46.636Z,-0.07
2018-02-07T09:34:46.619Z,-0.13
2018-02-07T09:35:46.582Z,-0.23
2018-02-07T09:36:46.557Z,-0.15
2018-02-07T09:37:46.528Z,-0.13
2018-02-07T09:38:46.517Z,0.00
2018-02-07T09:39:46.476Z,0.01
2018-02-07T09:40:46.468Z,0.08
2018-02-07T09:41:46.426Z,0.15
2018-02-07T09:42:46.392Z,0.49
2018-02-07T09:43:46.426Z,1.02
2018-02-07T09:44:46.337Z,1.76
2018-02-07T09:45:46.321Z,2.51
2018-02-07T09:46:46.285Z,3.09
2018-02-07T09:47:46.282Z,3.33
2018-02-07T09:48:46.233Z,3.76
2018-02-07T09:49:46.204Z,3.76
2018-02-07T09:50:46.227Z,3.50
2018-02-07T09:51:46.219Z,3.59
2018-02-07T09:52:46.129Z,3.64
2018-02-07T09:53:46.108Z,3.41
2018-02-07T09:54:46.101Z,3.85
2018-02-07T09:55:46.061Z,4.04
2018-02-07T09:56:46.025Z,3.84
2018-02-07T09:57:46.010Z,4.03
2018-02-07T09:58:45.980Z,4.46
2018-02-07T09:59:45.954Z,4.71
2018-02-07T10:00:45.926Z,4.82
2018-02-07T10:01:45.903Z,4.66
2018-02-07T10:02:45.890Z,4.79
2018-02-07T10:03:45.865Z,4.79
2018-02-07T10:04:45.843Z,4.79
2018-02-07T10:05:45.811Z,4.97
2018-02-07T10:06:45.846Z,5.33
2018-02-07T10:07:45.764Z,5.23
2018-02-07T10:08:45.750Z,5.44
2018-02-07T10:09:45.722Z,5.90
2018-02-07T10:10:45.695Z,6.02
2018-02-07T10:11:45.677Z,5.65
2018-02-07T10:12:45.658Z,5.56
2018-02-07T10:13:45.632Z,5.25
2018-02-07T10:14:45.606Z,5.46
2018-02-07T10:15:45.601Z,5.41
2018-02-07T10:16:45.564Z,5.41
2018-02-07T10:17:45.545Z,5.81
2018-02-07T10:18:45.524Z,6.01
2018-02-07T10:19:45.503Z,6.46
2018-02-07T10:20:45.481Z,6.72
2018-02-07T10:21:45.466Z,6.83
2018-02-07T10:22:45.441Z,6.85
2018-02-07T10:23:45.420Z,6.62
2018-02-07T10:24:45.403Z,6.54
2018-02-07T10:25:45.376Z,6.59
2018-02-07T10:26:45.356Z,6.78
2018-02-07T10:27:45.339Z,6.68
2018-02-07T10:28:45.312Z,6.35
2018-02-07T10:29:45.292Z,6.43
2018-02-07T10:30:45.279Z,6.28
2018-02-07T10:31:45.253Z,6.31
2018-02-07T10:32:45.231Z,6.72
2018-02-07T10:33:45.210Z,7.04
2018-02-07T10:34:45.192Z,7.18
2018-02-07T10:35:45.170Z,7.08
2018-02-07T10:36:45.153Z,6.90
2018-02-07T10:37:45.134Z,6.54
2018-02-07T10:38:45.120Z,6.46
2018-02-07T10:39:45.192Z,6.41
2018-02-07T10:40:45.078Z,6.68
2018-02-07T10:41:45.051Z,7.00
2018-02-07T10:42:45.033Z,7.28
2018-02-07T10:43:45.011Z,7.14
2018-02-07T10:44:44.991Z,7.31
2018-02-07T10:45:44.974Z,7.13
2018-02-07T10:46:44.952Z,7.37
2018-02-07T10:47:44.932Z,7.40
2018-02-07T10:48:44.922Z,7.64
2018-02-07T10:49:44.893Z,7.44
2018-02-07T10:50:44.871Z,7.11
2018-02-07T10:51:44.857Z,6.89
2018-02-07T10:52:44.832Z,7.18
2018-02-07T10:53:44.810Z,7.51
2018-02-07T10:54:44.805Z,7.15
2018-02-07T10:55:44.776Z,6.35
2018-02-07T10:56:44.775Z,6.77
2018-02-07T10:57:44.739Z,6.41
2018-02-07T10:58:44.770Z,6.52
2018-02-07T10:59:44.702Z,6.68
2018-02-07T11:00:44.681Z,6.47
2018-02-07T11:01:44.716Z,6.47
2018-02-07T11:02:44.650Z,6.70
2018-02-07T11:03:44.613Z,6.96
2018-02-07T11:04:44.671Z,7.58
2018-02-07T11:05:44.580Z,7.56
2018-02-07T11:06:44.566Z,7.31
2018-02-07T11:07:44.531Z,7.22
2018-02-07T11:08:44.522Z,7.26
2018-02-07T11:09:44.512Z,7.03
2018-02-07T11:10:44.466Z,7.01
2018-02-07T11:11:44.464Z,6.77
2018-02-07T11:12:44.453Z,7.04
2018-02-07T11:13:44.412Z,7.28
2018-02-07T11:14:44.393Z,7.11
2018-02-07T11:15:44.364Z,6.95
2018-02-07T11:16:44.343Z,7.13
2018-02-07T11:17:44.322Z,6.57
2018-02-07T11:18:44.303Z,6.57
2018-02-07T11:19:44.285Z,6.83
2018-02-07T11:20:44.260Z,7.15
2018-02-07T11:21:44.247Z,7.46
2018-02-07T11:22:44.216Z,7.43
2018-02-07T11:23:44.194Z,7.13
2018-02-07T11:24:44.173Z,7.69
2018-02-07T11:25:44.152Z,7.96
2018-02-07T11:26:44.138Z,7.90
2018-02-07T11:27:44.112Z,7.59
2018-02-07T11:28:44.113Z,7.75
2018-02-07T11:29:44.067Z,7.91
2018-02-07T11:30:44.045Z,8.32
2018-02-07T11:31:44.142Z,8.66
2018-02-07T11:32:44.002Z,8.63
2018-02-07T11:33:43.981Z,8.61
2018-02-07T11:34:44.024Z,8.44
2018-02-07T11:35:43.946Z,8.41
2018-02-07T11:36:43.914Z,8.08
2018-02-07T11:37:43.892Z,8.02
2018-02-07T11:38:43.878Z,8.18
2018-02-07T11:39:43.853Z,8.45
2018-02-07T11:40:43.831Z,8.45
2018-02-07T11:41:43.811Z,8.44
2018-02-07T11:42:43.798Z,8.78
2018-02-07T11:43:43.766Z,8.35
2018-02-07T11:44:43.746Z,8.45
2018-02-07T11:45:43.723Z,8.46
2018-02-07T11:46:43.711Z,8.45
2018-02-07T11:47:43.679Z,8.21
2018-02-07T11:48:43.660Z,7.98
2018-02-07T11:49:43.639Z,7.72
2018-02-07T11:50:43.644Z,7.43
2018-02-07T11:51:43.597Z,7.47
2018-02-07T11:52:43.569Z,7.72
2018-02-07T11:53:43.557Z,7.91
2018-02-07T11:54:43.531Z,8.21
2018-02-07T11:55:43.510Z,8.06
2018-02-07T11:56:43.492Z,7.61
2018-02-07T11:57:43.461Z,7.28
2018-02-07T11:58:43.448Z,7.46
2018-02-07T11:59:43.427Z,7.66
2018-02-07T12:00:43.394Z,7.90
2018-02-07T12:01:43.374Z,7.58
2018-02-07T12:02:43.349Z,7.46
2018-02-07T12:03:43.433Z,7.28
2018-02-07T12:04:43.308Z,6.96
2018-02-07T12:05:43.282Z,7.15
2018-02-07T12:06:43.268Z,7.15
2018-02-07T12:07:43.239Z,7.26
2018-02-07T12:08:43.219Z,7.43
2018-02-07T12:09:43.213Z,7.64
2018-02-07T12:10:43.172Z,7.83
2018-02-07T12:11:43.152Z,7.66
2018-02-07T12:12:43.132Z,7.47
2018-02-07T12:13:43.121Z,7.48
2018-02-07T12:14:43.089Z,7.72
2018-02-07T12:15:43.062Z,7.93
2018-02-07T12:16:43.135Z,7.90
2018-02-07T12:17:43.015Z,7.75
2018-02-07T12:18:42.996Z,7.67
2018-02-07T12:19:42.982Z,7.41
2018-02-07T12:20:42.952Z,7.48
2018-02-07T12:21:42.928Z,7.47
2018-02-07T12:22:42.908Z,7.29
2018-02-07T12:23:42.885Z,7.01
2018-02-07T12:24:42.872Z,6.82
2018-02-07T12:25:42.837Z,6.75
2018-02-07T12:26:42.825Z,7.01
2018-02-07T12:27:42.798Z,7.23
2018-02-07T12:28:42.768Z,6.93
2018-02-07T12:29:42.754Z,6.90
2018-02-07T12:30:42.727Z,6.78
2018-02-07T12:31:42.714Z,6.70
2018-02-07T12:32:42.679Z,6.67
2018-02-07T12:33:42.659Z,6.75
2018-02-07T12:34:42.634Z,6.72
2018-02-07T12:35:42.617Z,6.96
2018-02-07T12:36:42.589Z,6.89
2018-02-07T12:37:42.574Z,6.60
2018-02-07T12:38:42.545Z,6.31
2018-02-07T12:39:42.533Z,6.46
2018-02-07T12:40:42.498Z,6.54
2018-02-07T12:41:42.485Z,6.68
2018-02-07T12:42:42.453Z,6.68
2018-02-07T12:43:42.584Z,6.56
2018-02-07T12:44:42.415Z,6.49
2018-02-07T12:45:42.391Z,6.39
2018-02-07T12:46:42.536Z,6.31
2018-02-07T12:47:42.349Z,6.17
2018-02-07T12:48:42.317Z,5.29
2018-02-07T12:49:42.331Z,4.97
2018-02-07T12:50:42.272Z,4.74
2018-02-07T12:51:42.257Z,4.58
2018-02-07T12:52:42.226Z,4.45
2018-02-07T12:53:42.203Z,4.32
2018-02-07T12:54:42.186Z,4.36
2018-02-07T12:55:42.152Z,4.48
2018-02-07T12:56:42.131Z,4.32
2018-02-07T12:57:42.112Z,4.32
2018-02-07T12:58:42.087Z,4.48
2018-02-07T12:59:42.059Z,4.32
2018-02-07T13:00:42.041Z,4.28
2018-02-07T13:01:42.023Z,4.27
2018-02-07T13:02:41.997Z,4.28
2018-02-07T13:03:41.973Z,4.34
2018-02-07T13:04:41.944Z,4.32
2018-02-07T13:05:41.922Z,4.42
2018-02-07T13:06:41.900Z,4.38